Terminal Aerodrome Forecast
Issued by NWS

Home | Current Version | Previous Version | Text Only | Print | Product List | Glossary On
Versions: 1 2 3 4 5 6 7 8 9 10 11 12 13 14 15 16 17 18
000
FTUS42 KTBW 222118 AAA
TAFLAL
TAF AMD
KLAL 222118Z 2221/2318 16010KT P6SM SCT040 BKN120
     FM230200 14005KT 6SM BR VCSH BKN050 OVC120
     FM230700 16004KT 3SM SHRA BR BKN010
     FM231400 20007KT 4SM SHRA BR BKN010=

USA.gov is the U.S. government's official web portal to all federal, state and local government web resources and services.